Time;durP1;ratioP1;P1;durP2;ratioP2;P2;SDS_P1;SDS_P2;PMS_P1;PMS_P2;Temp;Humidity;BMP_temperature;BMP_pressure;BME280_temperature;BME280_humidity;BME280_pressure;Samples;Min_cycle;Max_cycle;Signal;HPM_P1;HPM_P2
2021/12/26 00:00:23;;;;;;;0.70;0.50;;;1.60;99.90;;;;;;5050290;28;20448;-68
2021/12/26 00:02:49;;;;;;;0.70;0.50;;;1.60;99.90;;;;;;5048053;28;20439;-69
2021/12/26 00:05:15;;;;;;;1.17;0.90;;;1.70;99.90;;;;;;5051091;28;20997;-68
2021/12/26 00:07:41;;;;;;;0.70;0.50;;;1.70;99.90;;;;;;5049850;28;20422;-70
2021/12/26 00:10:09;;;;;;;0.67;0.50;;;1.70;99.90;;;;;;5050511;28;20456;-68
2021/12/26 00:12:35;;;;;;;0.67;0.50;;;1.70;99.90;;;;;;5050132;28;20222;-71
2021/12/26 00:15:01;;;;;;;0.70;0.50;;;1.70;99.90;;;;;;5050220;28;20464;-68
2021/12/26 00:17:26;;;;;;;0.70;0.50;;;1.70;99.90;;;;;;5051390;28;20254;-69
2021/12/26 00:19:52;;;;;;;0.70;0.50;;;1.70;99.90;;;;;;5048848;28;20216;-68
2021/12/26 00:22:18;;;;;;;1.23;1.13;;;1.80;99.90;;;;;;5051377;28;20178;-68
2021/12/26 00:24:45;;;;;;;0.60;0.50;;;1.80;99.90;;;;;;5054913;28;20681;-68
2021/12/26 00:27:12;;;;;;;0.70;0.50;;;1.80;99.90;;;;;;5059953;28;20178;-69
2021/12/26 00:29:38;;;;;;;0.70;0.50;;;1.70;99.90;;;;;;5054972;28;20444;-71
2021/12/26 00:32:06;;;;;;;0.70;0.50;;;1.80;99.90;;;;;;5055358;28;20923;-68
2021/12/26 00:34:31;;;;;;;0.70;0.50;;;1.70;99.90;;;;;;5054668;28;20189;-68
2021/12/26 00:36:57;;;;;;;0.70;0.50;;;1.80;99.90;;;;;;5044684;28;20414;-68
2021/12/26 00:39:22;;;;;;;0.67;0.50;;;1.70;99.90;;;;;;5049504;28;20420;-68
2021/12/26 00:41:48;;;;;;;1.33;1.23;;;1.60;99.90;;;;;;5055161;28;20195;-69
2021/12/26 00:44:14;;;;;;;0.70;0.50;;;1.60;99.90;;;;;;5054840;28;20606;-69
2021/12/26 00:46:39;;;;;;;0.70;0.70;;;1.70;99.90;;;;;;5054661;28;20632;-68
2021/12/26 00:49:05;;;;;;;0.70;0.50;;;1.60;99.90;;;;;;5054510;28;20170;-68
2021/12/26 00:51:31;;;;;;;1.37;1.27;;;1.70;99.90;;;;;;5051049;28;20210;-68
2021/12/26 00:53:57;;;;;;;0.70;0.50;;;1.70;99.90;;;;;;5044074;28;20187;-69
2021/12/26 00:56:22;;;;;;;0.70;0.50;;;1.70;99.90;;;;;;5054095;28;20178;-70
2021/12/26 00:58:49;;;;;;;0.87;0.83;;;1.60;99.90;;;;;;5054551;28;20433;-68
2021/12/26 01:01:15;;;;;;;0.70;0.60;;;1.60;99.90;;;;;;5054458;28;20653;-69
2021/12/26 01:03:41;;;;;;;0.70;0.50;;;1.50;99.90;;;;;;5054325;28;20465;-69
2021/12/26 01:06:07;;;;;;;0.70;0.50;;;1.40;99.90;;;;;;5054079;28;20428;-69
2021/12/26 01:08:38;;;;;;;0.63;0.50;;;1.50;99.90;;;;;;5049842;28;20418;-70
2021/12/26 01:11:21;;;;;;;0.70;0.50;;;1.40;99.90;;;;;;5054574;28;20389;-68
2021/12/26 01:13:49;;;;;;;0.60;0.50;;;1.40;99.90;;;;;;5054681;28;20452;-69
2021/12/26 01:16:15;;;;;;;1.10;1.10;;;1.40;99.90;;;;;;5053774;28;20417;-68
2021/12/26 01:18:44;;;;;;;0.70;0.50;;;1.40;99.90;;;;;;5053720;28;20435;-70
2021/12/26 01:21:25;;;;;;;0.60;0.50;;;1.40;99.90;;;;;;5052630;28;20460;-68
2021/12/26 01:23:55;;;;;;;0.70;0.50;;;1.40;99.90;;;;;;5051744;28;20487;-68
2021/12/26 01:26:21;;;;;;;2.30;0.90;;;1.40;99.90;;;;;;5050236;28;20420;-67
2021/12/26 01:28:47;;;;;;;0.70;0.50;;;1.30;99.90;;;;;;5052990;28;20420;-68
2021/12/26 01:31:19;;;;;;;1.27;1.17;;;1.40;99.90;;;;;;5054225;28;20412;-68
2021/12/26 01:33:49;;;;;;;0.70;0.60;;;1.30;99.90;;;;;;5053825;28;20830;-69
2021/12/26 01:36:15;;;;;;;0.60;0.50;;;1.40;99.90;;;;;;5052353;28;20424;-68
2021/12/26 01:38:41;;;;;;;0.83;0.83;;;1.40;99.90;;;;;;5054049;28;20433;-68
2021/12/26 01:41:10;;;;;;;0.70;0.50;;;1.40;99.90;;;;;;5053594;28;20460;-68
2021/12/26 01:43:40;;;;;;;0.67;0.50;;;1.40;99.90;;;;;;5052172;28;20279;-68
2021/12/26 01:46:06;;;;;;;1.67;1.57;;;1.50;99.90;;;;;;5051939;28;20516;-70
2021/12/26 01:48:32;;;;;;;0.70;0.53;;;1.50;99.90;;;;;;5037312;28;20529;-68
2021/12/26 01:50:57;;;;;;;0.70;0.50;;;1.40;99.90;;;;;;5052903;28;20428;-68
2021/12/26 01:53:26;;;;;;;6.93;1.37;;;1.40;99.90;;;;;;5053361;28;20281;-69
2021/12/26 01:55:53;;;;;;;0.70;0.60;;;1.50;99.90;;;;;;5051579;28;20185;-68
2021/12/26 01:58:27;;;;;;;0.60;0.50;;;1.60;99.90;;;;;;5052409;28;20424;-68
2021/12/26 02:01:01;;;;;;;0.63;0.50;;;1.50;99.90;;;;;;5053746;28;20474;-69
2021/12/26 02:03:27;;;;;;;0.70;0.50;;;1.40;99.90;;;;;;5053443;28;20502;-69
2021/12/26 02:05:53;;;;;;;4.47;1.67;;;1.40;99.90;;;;;;5053167;28;20437;-68
2021/12/26 02:08:19;;;;;;;0.67;0.60;;;1.40;99.90;;;;;;5053413;28;20428;-68
2021/12/26 02:10:45;;;;;;;0.70;0.50;;;1.50;99.90;;;;;;5052050;28;20512;-68
2021/12/26 02:13:11;;;;;;;0.70;0.50;;;1.40;99.90;;;;;;5050532;28;20524;-68
2021/12/26 02:15:37;;;;;;;0.60;0.50;;;1.40;99.90;;;;;;5052993;28;20455;-69
2021/12/26 02:18:05;;;;;;;0.60;0.50;;;1.40;99.90;;;;;;5051759;28;20178;-69
2021/12/26 02:23:17;;;;;;;0.70;0.50;;;1.40;99.90;;;;;;5052992;28;20444;-68
2021/12/26 02:28:11;;;;;;;0.60;0.50;;;1.50;99.90;;;;;;5042574;28;20453;-70
2021/12/26 02:30:37;;;;;;;0.70;0.60;;;1.50;99.90;;;;;;5053064;28;20779;-68
2021/12/26 02:33:04;;;;;;;1.43;1.13;;;1.60;99.90;;;;;;5068073;28;20450;-69
2021/12/26 02:35:30;;;;;;;0.67;0.50;;;1.50;99.90;;;;;;5052052;28;20171;-68
2021/12/26 02:37:56;;;;;;;0.60;0.50;;;1.60;99.90;;;;;;5051664;28;20420;-68
2021/12/26 02:40:22;;;;;;;0.63;0.50;;;1.60;99.90;;;;;;5051502;28;20229;-69
2021/12/26 02:42:47;;;;;;;0.60;0.50;;;1.50;99.90;;;;;;5050710;28;20479;-69
2021/12/26 02:45:15;;;;;;;0.60;0.50;;;1.50;99.90;;;;;;5044865;28;20171;-70
2021/12/26 02:47:45;;;;;;;0.60;0.50;;;1.60;99.90;;;;;;5050094;28;20177;-68
2021/12/26 02:50:15;;;;;;;1.90;1.50;;;1.60;99.90;;;;;;5051098;28;20949;-68
2021/12/26 02:52:40;;;;;;;0.80;0.77;;;1.60;99.90;;;;;;5051097;28;20460;-68
2021/12/26 02:55:07;;;;;;;0.70;0.50;;;1.60;99.90;;;;;;5052260;28;20914;-68
2021/12/26 02:57:33;;;;;;;0.70;0.50;;;1.60;99.90;;;;;;5052625;28;20416;-68
2021/12/26 03:00:07;;;;;;;0.70;0.60;;;1.60;99.90;;;;;;5045769;28;20504;-68
2021/12/26 03:02:33;;;;;;;0.70;0.70;;;1.70;99.90;;;;;;5051607;28;20201;-68
2021/12/26 03:04:58;;;;;;;0.67;0.53;;;1.70;99.90;;;;;;5052154;28;20452;-69
2021/12/26 03:07:24;;;;;;;0.97;0.97;;;1.70;99.90;;;;;;5051003;28;20209;-69
2021/12/26 03:09:58;;;;;;;0.70;0.50;;;1.70;99.90;;;;;;5051785;28;20202;-68
2021/12/26 03:12:23;;;;;;;0.90;0.80;;;1.60;99.90;;;;;;5052607;28;20166;-69
2021/12/26 03:14:49;;;;;;;0.70;0.60;;;1.60;99.90;;;;;;5050173;28;20429;-68
2021/12/26 03:17:15;;;;;;;0.70;0.70;;;1.60;99.90;;;;;;5049237;28;20190;-69
2021/12/26 03:19:40;;;;;;;1.37;1.27;;;1.60;99.90;;;;;;5051818;28;20173;-70
2021/12/26 03:22:06;;;;;;;0.97;0.93;;;1.60;99.90;;;;;;5052190;28;20233;-68
2021/12/26 03:24:32;;;;;;;0.60;0.50;;;1.60;99.90;;;;;;5049593;28;20195;-68
2021/12/26 03:27:03;;;;;;;0.70;0.60;;;1.60;99.90;;;;;;5050613;28;20424;-68
2021/12/26 03:29:29;;;;;;;0.70;0.60;;;1.50;99.90;;;;;;5051564;28;20425;-68
2021/12/26 03:31:54;;;;;;;2.03;0.73;;;1.50;99.90;;;;;;5046731;28;20432;-70
2021/12/26 03:34:20;;;;;;;0.70;0.50;;;1.50;99.90;;;;;;5051815;28;20198;-68
2021/12/26 03:36:50;;;;;;;1.37;1.07;;;1.50;99.90;;;;;;5051836;28;20578;-69
2021/12/26 03:39:15;;;;;;;0.93;0.60;;;1.50;99.90;;;;;;5050421;28;20171;-68
2021/12/26 03:41:41;;;;;;;0.70;0.50;;;1.50;99.90;;;;;;5038180;28;20492;-69
2021/12/26 03:44:06;;;;;;;1.13;0.93;;;1.50;99.90;;;;;;5045035;28;20552;-70
2021/12/26 03:46:32;;;;;;;0.67;0.60;;;1.50;99.90;;;;;;5051492;28;20173;-69
2021/12/26 03:49:01;;;;;;;1.33;0.80;;;1.50;99.90;;;;;;5050163;28;20201;-69
2021/12/26 03:51:26;;;;;;;0.67;0.50;;;1.50;99.90;;;;;;5050102;28;20178;-68
2021/12/26 03:53:52;;;;;;;0.67;0.50;;;1.50;99.90;;;;;;5050356;28;20502;-68
2021/12/26 03:56:17;;;;;;;0.60;0.50;;;1.50;99.90;;;;;;5051026;28;20178;-69
2021/12/26 03:58:43;;;;;;;0.70;0.70;;;1.50;99.90;;;;;;5051195;28;20283;-69
2021/12/26 04:01:09;;;;;;;0.60;0.50;;;1.50;99.90;;;;;;5051421;28;20195;-69
2021/12/26 04:03:34;;;;;;;0.70;0.50;;;1.50;99.90;;;;;;5051472;28;20591;-68
2021/12/26 04:06:00;;;;;;;1.27;1.17;;;1.60;99.90;;;;;;5051362;28;20171;-68
2021/12/26 04:08:26;;;;;;;0.60;0.50;;;1.60;99.90;;;;;;5048803;28;20175;-70
2021/12/26 04:10:51;;;;;;;1.37;1.27;;;1.60;99.90;;;;;;5048059;28;20192;-70
2021/12/26 04:13:17;;;;;;;0.87;0.87;;;1.50;99.90;;;;;;5050168;28;20935;-68
2021/12/26 04:15:43;;;;;;;0.70;0.50;;;1.60;99.90;;;;;;5051157;28;20217;-69
2021/12/26 04:18:08;;;;;;;1.47;0.80;;;1.50;99.90;;;;;;5050975;28;20201;-68
2021/12/26 04:20:34;;;;;;;0.93;0.67;;;1.60;99.90;;;;;;5050956;28;20196;-69
2021/12/26 04:23:00;;;;;;;0.70;0.70;;;1.60;99.90;;;;;;5051333;28;20189;-69
2021/12/26 04:25:27;;;;;;;0.67;0.50;;;1.60;99.90;;;;;;5050880;28;20217;-69
2021/12/26 04:27:53;;;;;;;0.60;0.50;;;1.70;99.90;;;;;;5042022;28;20225;-68
2021/12/26 04:30:20;;;;;;;0.70;0.70;;;1.70;99.90;;;;;;5051575;28;20405;-68
2021/12/26 04:32:47;;;;;;;0.70;0.60;;;1.80;99.90;;;;;;5051154;28;20499;-69
2021/12/26 04:35:13;;;;;;;0.60;0.50;;;1.80;99.90;;;;;;5049224;28;20420;-70
2021/12/26 04:37:39;;;;;;;0.60;0.50;;;1.80;99.90;;;;;;5051182;28;20443;-68
2021/12/26 04:40:07;;;;;;;0.80;0.80;;;1.80;99.90;;;;;;5046480;28;20503;-68
2021/12/26 04:42:33;;;;;;;0.60;0.50;;;1.90;99.90;;;;;;5030408;28;20175;-69
2021/12/26 04:44:59;;;;;;;1.27;1.17;;;1.90;99.90;;;;;;5049636;28;20425;-68
2021/12/26 04:47:24;;;;;;;0.63;0.50;;;1.90;99.90;;;;;;5051020;28;20175;-69
2021/12/26 04:49:50;;;;;;;0.70;0.60;;;1.90;99.90;;;;;;5050592;28;20207;-68
2021/12/26 04:52:15;;;;;;;0.67;0.50;;;1.80;99.90;;;;;;5051103;28;20178;-69
2021/12/26 04:54:41;;;;;;;1.17;0.70;;;1.70;99.90;;;;;;5050688;28;20648;-68
2021/12/26 04:57:06;;;;;;;0.60;0.50;;;1.70;99.90;;;;;;5041751;28;20171;-69
2021/12/26 04:59:32;;;;;;;0.67;0.50;;;1.70;99.90;;;;;;5044826;28;20189;-68
2021/12/26 05:01:58;;;;;;;0.83;0.83;;;1.70;99.90;;;;;;5051059;28;20202;-68
2021/12/26 05:04:24;;;;;;;0.80;0.80;;;1.60;99.90;;;;;;5050828;28;20269;-68
2021/12/26 05:06:50;;;;;;;0.83;0.83;;;1.70;99.90;;;;;;5050723;28;20588;-68
2021/12/26 05:09:16;;;;;;;1.70;1.60;;;1.50;99.90;;;;;;5050718;28;20171;-69
2021/12/26 05:11:41;;;;;;;0.60;0.50;;;1.60;99.90;;;;;;5054005;28;20899;-68
2021/12/26 05:14:07;;;;;;;0.73;0.73;;;1.60;99.90;;;;;;5049969;28;20240;-70
2021/12/26 05:16:33;;;;;;;0.60;0.50;;;1.60;99.90;;;;;;5054016;28;20180;-68
2021/12/26 05:18:59;;;;;;;0.80;0.80;;;1.50;99.90;;;;;;5054042;28;20213;-68
2021/12/26 05:21:24;;;;;;;1.00;0.87;;;1.60;99.90;;;;;;5053431;28;20557;-68
2021/12/26 05:23:50;;;;;;;0.60;0.50;;;1.50;99.90;;;;;;5054378;28;20855;-68
2021/12/26 05:26:16;;;;;;;0.70;0.50;;;1.50;99.90;;;;;;5053580;28;20257;-68
2021/12/26 05:28:41;;;;;;;0.70;0.50;;;1.60;99.90;;;;;;5053362;28;20173;-70
2021/12/26 05:31:07;;;;;;;0.70;0.70;;;1.60;99.90;;;;;;5052758;28;20178;-68
2021/12/26 05:33:32;;;;;;;0.90;0.90;;;1.60;99.90;;;;;;5052704;28;20187;-68
2021/12/26 05:35:59;;;;;;;0.87;0.80;;;1.50;99.90;;;;;;5052589;28;20178;-68
2021/12/26 05:38:27;;;;;;;0.70;0.50;;;1.50;99.90;;;;;;5053662;28;20174;-68
2021/12/26 05:40:53;;;;;;;0.60;0.50;;;1.50;99.90;;;;;;5053986;28;20810;-69
2021/12/26 05:43:19;;;;;;;0.60;0.50;;;1.50;99.90;;;;;;5052520;28;20429;-69
2021/12/26 05:45:44;;;;;;;6.50;1.73;;;1.50;99.90;;;;;;5052894;28;20424;-69
2021/12/26 05:48:10;;;;;;;1.33;1.23;;;1.50;99.90;;;;;;5053567;28;20175;-70
2021/12/26 05:50:35;;;;;;;0.97;0.97;;;1.50;99.90;;;;;;5052252;28;20263;-68
2021/12/26 05:53:01;;;;;;;1.00;1.00;;;1.50;99.90;;;;;;5053693;28;20540;-68
2021/12/26 05:55:27;;;;;;;0.60;0.50;;;1.50;99.90;;;;;;5052312;28;20190;-69
2021/12/26 05:57:52;;;;;;;1.53;1.43;;;1.60;99.90;;;;;;5052353;28;20241;-69
2021/12/26 06:00:19;;;;;;;0.60;0.50;;;1.60;99.90;;;;;;5052828;28;20179;-69
2021/12/26 06:02:45;;;;;;;1.53;1.10;;;1.60;99.90;;;;;;5052005;28;20186;-68
2021/12/26 06:05:11;;;;;;;1.87;1.77;;;1.50;99.90;;;;;;5053583;28;20404;-68
2021/12/26 06:07:37;;;;;;;1.53;1.03;;;1.60;99.90;;;;;;5053552;28;20527;-69
2021/12/26 06:10:04;;;;;;;0.70;0.60;;;1.60;99.90;;;;;;5049369;28;20252;-69
2021/12/26 06:12:30;;;;;;;1.43;0.70;;;1.60;99.90;;;;;;5053160;28;20184;-68
2021/12/26 06:14:55;;;;;;;0.60;0.50;;;1.60;99.90;;;;;;5051945;28;20409;-68
2021/12/26 06:17:21;;;;;;;0.60;0.50;;;1.70;99.90;;;;;;5051360;28;20632;-69
2021/12/26 06:19:46;;;;;;;0.60;0.50;;;1.70;99.90;;;;;;5052904;28;20528;-70
2021/12/26 06:22:12;;;;;;;0.60;0.50;;;1.60;99.90;;;;;;5051650;28;20198;-68
2021/12/26 06:24:37;;;;;;;0.60;0.50;;;1.60;99.90;;;;;;5052700;28;20710;-69
2021/12/26 06:27:03;;;;;;;0.60;0.50;;;1.60;99.90;;;;;;5052660;28;20254;-68
2021/12/26 06:29:29;;;;;;;1.57;1.47;;;1.60;99.90;;;;;;5052998;28;20167;-69
2021/12/26 06:31:54;;;;;;;0.70;0.60;;;1.70;99.90;;;;;;5051690;28;20869;-68
2021/12/26 06:34:20;;;;;;;0.60;0.50;;;1.70;99.90;;;;;;5047484;28;20199;-68
2021/12/26 06:36:46;;;;;;;0.70;0.60;;;1.70;99.90;;;;;;5049262;28;20208;-68
2021/12/26 06:39:11;;;;;;;3.13;1.20;;;1.70;99.90;;;;;;5055271;28;20242;-69
2021/12/26 06:41:38;;;;;;;0.67;0.50;;;1.60;99.90;;;;;;5055275;28;20237;-70
2021/12/26 06:44:07;;;;;;;0.60;0.50;;;1.70;99.90;;;;;;5062101;28;20192;-68
2021/12/26 06:46:33;;;;;;;0.60;0.50;;;1.60;99.90;;;;;;5071455;28;20443;-68
2021/12/26 06:48:58;;;;;;;0.60;0.50;;;1.70;99.90;;;;;;5059588;28;20426;-68
2021/12/26 06:51:24;;;;;;;1.13;1.03;;;1.70;99.90;;;;;;5052451;28;20431;-68
2021/12/26 06:53:49;;;;;;;0.60;0.50;;;1.70;99.90;;;;;;5051155;28;20205;-69
2021/12/26 06:56:15;;;;;;;0.60;0.50;;;1.80;99.90;;;;;;5050886;28;20200;-68
2021/12/26 06:58:41;;;;;;;0.60;0.50;;;1.70;99.90;;;;;;5052199;28;20205;-68
2021/12/26 07:01:06;;;;;;;1.77;1.23;;;1.70;99.90;;;;;;5052476;28;20191;-68
2021/12/26 07:03:32;;;;;;;2.00;1.90;;;1.60;99.90;;;;;;5052402;28;20225;-69
2021/12/26 07:05:57;;;;;;;0.67;0.50;;;1.70;99.90;;;;;;5050761;28;20248;-68
2021/12/26 07:08:23;;;;;;;0.60;0.50;;;1.70;99.90;;;;;;5052128;28;20762;-68
2021/12/26 07:10:49;;;;;;;0.60;0.50;;;1.70;99.90;;;;;;5049090;28;20171;-68
2021/12/26 07:13:15;;;;;;;0.70;0.60;;;1.70;99.90;;;;;;5050957;28;20197;-68
2021/12/26 07:15:41;;;;;;;0.60;0.50;;;1.60;99.90;;;;;;5050739;28;20796;-68
2021/12/26 07:18:06;;;;;;;0.70;0.60;;;1.60;99.90;;;;;;5052088;28;20199;-68
2021/12/26 07:20:33;;;;;;;0.60;0.50;;;1.60;99.90;;;;;;5040887;28;20201;-69
2021/12/26 07:22:59;;;;;;;0.60;0.50;;;1.70;99.90;;;;;;5051660;28;20551;-69
2021/12/26 07:25:25;;;;;;;0.60;0.60;;;1.70;99.90;;;;;;5052093;28;20417;-69
2021/12/26 07:27:50;;;;;;;0.70;0.70;;;1.70;99.90;;;;;;5052040;28;20801;-70
2021/12/26 07:30:16;;;;;;;1.23;1.13;;;1.70;99.90;;;;;;5051855;28;20190;-68
2021/12/26 07:32:41;;;;;;;0.70;0.50;;;1.80;99.90;;;;;;5051071;28;20197;-68
2021/12/26 07:35:08;;;;;;;1.17;1.00;;;1.70;99.90;;;;;;5049561;28;20596;-69
2021/12/26 07:37:34;;;;;;;0.70;0.50;;;1.70;99.90;;;;;;5050504;28;20163;-68
2021/12/26 07:40:00;;;;;;;0.60;0.50;;;1.70;99.90;;;;;;5051204;28;20998;-69
2021/12/26 07:42:25;;;;;;;1.13;1.03;;;1.80;99.90;;;;;;5051875;28;20243;-68
2021/12/26 07:44:51;;;;;;;0.70;0.60;;;1.80;99.90;;;;;;5048155;28;20505;-68
2021/12/26 07:47:17;;;;;;;0.70;0.60;;;1.80;99.90;;;;;;5030637;28;20164;-68
2021/12/26 07:49:43;;;;;;;0.60;0.50;;;1.80;99.90;;;;;;5037497;28;20166;-68
2021/12/26 07:52:16;;;;;;;0.60;0.50;;;1.90;99.90;;;;;;5050394;28;20521;-68
2021/12/26 07:54:43;;;;;;;0.60;0.50;;;2.00;99.90;;;;;;5050246;28;20195;-68
2021/12/26 07:57:09;;;;;;;1.33;1.23;;;1.90;99.90;;;;;;5050138;28;20401;-68
2021/12/26 07:59:35;;;;;;;0.80;0.80;;;1.90;99.90;;;;;;5051420;28;20825;-69
2021/12/26 08:02:01;;;;;;;1.13;1.13;;;1.80;99.90;;;;;;5051298;28;20458;-68
2021/12/26 08:04:27;;;;;;;0.70;0.70;;;1.90;99.90;;;;;;5051475;28;21037;-68
2021/12/26 08:06:57;;;;;;;0.60;0.50;;;1.80;99.90;;;;;;5050017;28;20459;-68
2021/12/26 08:09:22;;;;;;;0.60;0.50;;;2.00;99.90;;;;;;5051209;28;20441;-69
2021/12/26 08:11:48;;;;;;;0.63;0.50;;;2.00;99.90;;;;;;5051215;28;20495;-68
2021/12/26 08:14:14;;;;;;;0.87;0.87;;;2.00;99.90;;;;;;5051522;28;20672;-69
2021/12/26 08:16:39;;;;;;;1.40;0.90;;;1.90;99.90;;;;;;5049431;28;20217;-67
2021/12/26 08:19:06;;;;;;;2.03;1.33;;;1.90;99.90;;;;;;5051590;28;20167;-68
2021/12/26 08:21:33;;;;;;;0.87;0.87;;;1.80;99.90;;;;;;5050201;28;20194;-69
2021/12/26 08:23:59;;;;;;;0.70;0.70;;;1.90;99.90;;;;;;5049869;28;20441;-68
2021/12/26 08:26:25;;;;;;;0.70;0.53;;;2.00;99.90;;;;;;5051187;28;20411;-69
2021/12/26 08:28:50;;;;;;;1.73;1.63;;;1.90;99.90;;;;;;5049616;28;20445;-68
2021/12/26 08:31:17;;;;;;;0.70;0.50;;;1.90;99.90;;;;;;5048773;28;20168;-69
2021/12/26 08:33:43;;;;;;;1.30;0.97;;;1.90;99.90;;;;;;5051271;28;20205;-69
2021/12/26 08:36:09;;;;;;;0.97;0.87;;;2.00;99.90;;;;;;5051152;28;20412;-68
2021/12/26 08:38:34;;;;;;;0.80;0.80;;;2.00;99.90;;;;;;5050716;28;20179;-69
2021/12/26 08:41:00;;;;;;;0.67;0.50;;;2.00;99.90;;;;;;5050679;28;20680;-69
2021/12/26 08:43:26;;;;;;;0.60;0.50;;;2.10;99.90;;;;;;5044426;28;20187;-70
2021/12/26 08:45:52;;;;;;;0.63;0.50;;;2.00;99.90;;;;;;5047491;28;20942;-68
2021/12/26 08:48:18;;;;;;;38.30;2.40;;;2.00;99.90;;;;;;5042347;28;20218;-68
2021/12/26 08:50:44;;;;;;;0.80;0.80;;;2.00;99.90;;;;;;5035243;28;20409;-67
2021/12/26 08:53:10;;;;;;;3.83;1.57;;;2.00;99.90;;;;;;5049740;28;20482;-68
2021/12/26 08:55:37;;;;;;;0.67;0.60;;;2.00;99.90;;;;;;5054757;28;20467;-68
2021/12/26 08:58:06;;;;;;;0.67;0.50;;;2.10;99.90;;;;;;5038270;28;20522;-70
2021/12/26 09:00:32;;;;;;;0.80;0.70;;;2.10;99.90;;;;;;5034844;28;20406;-68
2021/12/26 09:02:58;;;;;;;1.93;1.83;;;2.20;99.90;;;;;;5045986;28;20536;-68
2021/12/26 09:05:23;;;;;;;0.80;0.70;;;2.10;99.90;;;;;;5053138;28;20514;-68
2021/12/26 09:07:49;;;;;;;0.97;0.97;;;2.20;99.90;;;;;;5053227;28;20186;-68
2021/12/26 09:10:15;;;;;;;1.03;0.97;;;2.20;99.90;;;;;;5053269;28;20588;-68
2021/12/26 09:12:42;;;;;;;0.80;0.73;;;2.30;99.90;;;;;;5054593;28;20460;-69
2021/12/26 09:15:10;;;;;;;0.70;0.70;;;2.30;99.90;;;;;;5052686;28;20199;-69
2021/12/26 09:17:35;;;;;;;2.43;0.90;;;2.30;99.90;;;;;;5054476;28;20417;-68
2021/12/26 09:20:02;;;;;;;2.60;2.30;;;2.30;99.90;;;;;;5053019;28;20571;-69
2021/12/26 09:22:27;;;;;;;1.37;1.27;;;2.40;99.90;;;;;;5052613;28;20722;-68
2021/12/26 09:24:53;;;;;;;0.70;0.70;;;2.50;99.90;;;;;;5052856;28;20445;-68
2021/12/26 09:27:19;;;;;;;2.80;2.60;;;2.40;99.90;;;;;;5054478;28;20253;-68
2021/12/26 09:29:45;;;;;;;0.70;0.60;;;2.40;99.90;;;;;;5054541;28;20171;-69
2021/12/26 09:32:10;;;;;;;0.70;0.50;;;2.40;99.90;;;;;;5048680;28;20421;-68
2021/12/26 09:34:36;;;;;;;2.07;1.00;;;2.40;99.90;;;;;;5042911;28;21053;-69
2021/12/26 09:37:05;;;;;;;2.13;2.00;;;2.40;99.90;;;;;;5053698;28;20640;-69
2021/12/26 09:39:30;;;;;;;0.60;0.50;;;2.40;99.90;;;;;;5046871;28;20957;-68
2021/12/26 09:41:56;;;;;;;0.60;0.50;;;2.40;99.90;;;;;;5053307;28;20455;-68
2021/12/26 09:44:22;;;;;;;0.60;0.50;;;2.40;99.90;;;;;;5053770;28;20248;-69
2021/12/26 09:46:48;;;;;;;0.70;0.50;;;2.30;99.90;;;;;;5045515;28;20246;-70
2021/12/26 09:49:14;;;;;;;0.60;0.50;;;2.30;99.90;;;;;;5046973;28;20435;-68
2021/12/26 09:51:39;;;;;;;0.67;0.50;;;2.30;99.90;;;;;;5053376;28;20428;-68
2021/12/26 09:54:06;;;;;;;0.60;0.50;;;2.30;99.90;;;;;;5053575;28;20244;-68
2021/12/26 09:56:32;;;;;;;1.13;1.10;;;2.40;99.90;;;;;;5052714;28;20217;-68
2021/12/26 09:59:01;;;;;;;0.60;0.50;;;2.50;99.90;;;;;;5053711;28;20453;-69
2021/12/26 10:01:28;;;;;;;0.70;0.60;;;2.60;99.90;;;;;;5053481;28;20456;-68
2021/12/26 10:03:54;;;;;;;0.70;0.60;;;2.60;99.90;;;;;;5053773;28;20475;-68
2021/12/26 10:06:19;;;;;;;1.43;1.33;;;2.70;99.90;;;;;;5053606;28;20445;-68
2021/12/26 10:09:03;;;;;;;1.07;1.03;;;2.60;99.90;;;;;;5053678;28;20717;-68
2021/12/26 10:11:35;;;;;;;0.97;0.97;;;2.70;99.90;;;;;;5053269;28;20186;-69
2021/12/26 10:14:03;;;;;;;0.80;0.80;;;2.70;99.90;;;;;;5048568;28;20449;-69
2021/12/26 10:16:31;;;;;;;2.20;1.73;;;2.70;99.90;;;;;;5053287;28;20424;-69
2021/12/26 10:18:58;;;;;;;1.90;1.80;;;2.90;99.90;;;;;;5051812;28;20516;-69
2021/12/26 10:21:31;;;;;;;0.60;0.50;;;2.80;99.90;;;;;;5052974;28;20457;-69
2021/12/26 10:24:03;;;;;;;0.63;0.50;;;2.90;99.90;;;;;;5053502;28;20452;-68
2021/12/26 10:26:33;;;;;;;0.70;0.60;;;3.00;99.90;;;;;;5053160;28;20398;-69
2021/12/26 10:29:16;;;;;;;0.80;0.80;;;3.20;99.90;;;;;;5053427;28;20413;-68
2021/12/26 10:32:03;;;;;;;1.10;0.70;;;3.20;99.90;;;;;;5052616;28;20433;-68
2021/12/26 10:34:51;;;;;;;1.90;0.97;;;3.40;99.90;;;;;;5052496;28;20461;-70
2021/12/26 10:37:22;;;;;;;1.90;1.80;;;3.40;99.90;;;;;;5052576;28;21096;-68
2021/12/26 10:39:51;;;;;;;3.43;1.13;;;3.40;99.90;;;;;;5052842;28;20432;-68
2021/12/26 10:42:23;;;;;;;1.13;1.03;;;3.40;99.90;;;;;;5045212;28;20797;-69
2021/12/26 10:44:54;;;;;;;2.90;1.53;;;3.50;99.90;;;;;;5052656;28;20466;-68
2021/12/26 10:47:23;;;;;;;0.83;0.70;;;3.40;99.90;;;;;;5050370;28;20452;-68
2021/12/26 10:49:55;;;;;;;0.70;0.60;;;3.50;99.90;;;;;;5052790;28;20563;-68
2021/12/26 10:52:31;;;;;;;1.10;1.10;;;3.40;99.90;;;;;;5051212;28;20508;-68
2021/12/26 10:55:05;;;;;;;0.97;0.97;;;3.50;99.90;;;;;;5052288;28;20432;-68
2021/12/26 10:57:35;;;;;;;5.07;2.90;;;3.30;99.90;;;;;;5051421;28;20470;-68
2021/12/26 11:00:09;;;;;;;0.70;0.50;;;3.10;99.90;;;;;;5052605;28;20409;-68
2021/12/26 11:02:36;;;;;;;0.70;0.70;;;3.20;99.90;;;;;;5050591;28;20888;-68
2021/12/26 11:05:11;;;;;;;0.70;0.67;;;3.10;99.90;;;;;;5051849;28;20430;-69
2021/12/26 11:07:41;;;;;;;2.17;1.03;;;3.10;99.90;;;;;;5051741;28;20483;-68
2021/12/26 11:10:14;;;;;;;4.40;1.50;;;3.00;99.90;;;;;;5052365;28;20445;-68
2021/12/26 11:12:43;;;;;;;0.60;0.50;;;2.80;99.90;;;;;;5052408;28;20445;-68
2021/12/26 11:15:10;;;;;;;0.70;0.60;;;2.90;99.90;;;;;;5042797;28;20525;-68
2021/12/26 11:17:45;;;;;;;1.27;1.17;;;2.80;99.90;;;;;;5041284;28;20909;-68
2021/12/26 11:20:41;;;;;;;0.60;0.50;;;3.00;99.90;;;;;;5041803;28;20771;-69
2021/12/26 11:23:13;;;;;;;1.80;1.27;;;3.10;99.90;;;;;;5035442;28;20512;-69
2021/12/26 11:25:46;;;;;;;1.20;1.03;;;3.30;99.90;;;;;;5032000;28;20488;-68
2021/12/26 11:28:16;;;;;;;1.00;1.00;;;3.50;99.90;;;;;;5044522;28;20413;-68
2021/12/26 11:30:43;;;;;;;0.77;0.60;;;3.40;99.90;;;;;;5051628;28;20411;-68
2021/12/26 11:33:11;;;;;;;0.60;0.50;;;3.40;99.90;;;;;;5052060;28;20447;-68
2021/12/26 11:35:39;;;;;;;0.60;0.50;;;3.50;99.90;;;;;;5051784;28;20402;-68
2021/12/26 11:38:07;;;;;;;1.60;1.50;;;3.70;99.90;;;;;;5048131;28;20425;-69
2021/12/26 11:40:34;;;;;;;1.10;1.00;;;3.70;99.90;;;;;;5031371;28;20410;-68
2021/12/26 11:43:18;;;;;;;0.70;0.60;;;3.80;99.90;;;;;;5051837;28;20969;-69
2021/12/26 11:45:50;;;;;;;1.97;1.17;;;3.70;99.90;;;;;;5051664;28;20497;-68
2021/12/26 11:48:36;;;;;;;0.70;0.63;;;3.90;99.90;;;;;;5043657;28;20417;-68
2021/12/26 11:51:19;;;;;;;1.00;1.00;;;4.10;99.90;;;;;;5051754;28;20447;-68
2021/12/26 11:53:51;;;;;;;1.00;0.70;;;4.00;99.90;;;;;;5032249;28;20796;-69
2021/12/26 11:56:45;;;;;;;0.90;0.90;;;4.30;99.90;;;;;;5047093;28;20439;-68
2021/12/26 11:59:25;;;;;;;1.57;1.43;;;4.40;99.90;;;;;;5051817;28;20378;-68
2021/12/26 12:01:51;;;;;;;0.70;0.50;;;4.30;99.90;;;;;;5051620;28;20483;-68
2021/12/26 12:04:20;;;;;;;0.60;0.50;;;4.20;99.90;;;;;;5051053;28;20437;-67
2021/12/26 12:06:47;;;;;;;1.53;1.43;;;4.20;99.90;;;;;;5050166;28;20668;-70
2021/12/26 12:09:26;;;;;;;0.70;0.60;;;4.10;99.90;;;;;;5051120;28;20467;-69
2021/12/26 12:12:15;;;;;;;2.33;0.63;;;4.00;99.90;;;;;;5051235;28;20407;-69
2021/12/26 12:14:58;;;;;;;0.70;0.50;;;3.90;99.90;;;;;;5051630;28;20410;-69
2021/12/26 12:17:30;;;;;;;1.87;1.77;;;3.90;99.90;;;;;;5033378;28;20401;-69
2021/12/26 12:20:15;;;;;;;0.70;0.50;;;3.80;99.90;;;;;;5052392;28;20413;-69
2021/12/26 12:23:08;;;;;;;0.70;0.50;;;3.70;99.90;;;;;;5054316;28;20551;-68
2021/12/26 12:25:34;;;;;;;1.37;1.27;;;3.60;99.90;;;;;;5052597;28;21168;-68
2021/12/26 12:28:16;;;;;;;0.97;0.87;;;3.70;99.90;;;;;;5054320;28;20488;-68
2021/12/26 12:30:51;;;;;;;0.83;0.83;;;3.70;99.90;;;;;;5055137;28;20231;-70
2021/12/26 12:33:21;;;;;;;0.60;0.50;;;3.60;99.90;;;;;;5059226;28;20957;-69
2021/12/26 12:36:00;;;;;;;0.67;0.50;;;3.70;99.90;;;;;;5075229;28;20399;-69
2021/12/26 12:38:28;;;;;;;0.70;0.50;;;3.70;99.90;;;;;;5045456;28;20421;-69
2021/12/26 12:40:55;;;;;;;1.50;1.40;;;3.80;99.90;;;;;;5055373;28;20933;-69
2021/12/26 12:43:23;;;;;;;1.10;1.00;;;3.90;99.90;;;;;;5055181;28;20524;-70
2021/12/26 12:45:56;;;;;;;1.10;0.90;;;3.90;99.90;;;;;;5054688;28;20425;-69
2021/12/26 12:48:26;;;;;;;1.07;0.97;;;4.00;99.90;;;;;;5055202;28;20508;-68
2021/12/26 12:50:54;;;;;;;0.93;0.93;;;4.10;99.90;;;;;;5059259;28;20782;-69
2021/12/26 12:53:42;;;;;;;1.53;1.43;;;3.90;99.90;;;;;;5061974;28;20451;-69
2021/12/26 12:56:10;;;;;;;0.70;0.60;;;3.90;99.90;;;;;;5060666;28;20444;-69
2021/12/26 12:58:36;;;;;;;0.70;0.70;;;4.00;99.90;;;;;;5063103;28;20425;-69
2021/12/26 13:01:06;;;;;;;1.37;0.87;;;4.00;99.90;;;;;;5055356;28;20441;-68
2021/12/26 13:03:34;;;;;;;0.80;0.77;;;4.10;99.90;;;;;;5053246;28;20461;-69
2021/12/26 13:06:09;;;;;;;0.80;0.80;;;3.90;99.90;;;;;;5058471;28;20397;-69